Time;durP1;ratioP1;P1;durP2;ratioP2;P2;SDS_P1;SDS_P2;PMS_P1;PMS_P2;Temp;Humidity;BMP_temperature;BMP_pressure;BME280_temperature;BME280_humidity;BME280_pressure;Samples;Min_cycle;Max_cycle;Signal;HPM_P1;HPM_P2
2022/01/29 00:01:18;;;;;;;;;;;26.10;99.90;;;;;;5055032;28;19912;-73
2022/01/29 00:03:44;;;;;;;;;;;26.20;99.90;;;;;;5054989;28;19920;-75
2022/01/29 00:06:11;;;;;;;;;;;26.30;99.90;;;;;;5055016;28;19943;-74
2022/01/29 00:08:38;;;;;;;;;;;26.40;99.90;;;;;;5054780;28;19999;-74
2022/01/29 00:11:11;;;;;;;;;;;26.40;99.90;;;;;;5054952;28;20356;-75
2022/01/29 00:13:38;;;;;;;;;;;26.50;99.90;;;;;;5054801;28;19913;-74
2022/01/29 00:16:05;;;;;;;;;;;26.60;99.90;;;;;;5054683;28;19916;-74
2022/01/29 00:18:32;;;;;;;;;;;26.50;99.90;;;;;;5054659;28;19955;-74
2022/01/29 00:20:58;;;;;;;;;;;26.70;99.90;;;;;;5054447;28;19920;-74
2022/01/29 00:23:25;;;;;;;;;;;26.80;99.90;;;;;;5054627;28;20267;-74
2022/01/29 00:25:52;;;;;;;;;;;26.80;99.90;;;;;;5054379;28;19977;-73
2022/01/29 00:28:18;;;;;;;;;;;26.80;99.90;;;;;;5054312;28;19919;-72
2022/01/29 00:30:45;;;;;;;;;;;26.80;99.90;;;;;;5054354;28;19948;-72
2022/01/29 00:33:13;;;;;;;;;;;26.80;99.90;;;;;;5053947;28;19935;-73
2022/01/29 00:35:39;;;;;;;;;;;26.80;99.90;;;;;;5054537;28;19908;-74
2022/01/29 00:38:06;;;;;;;;;;;26.90;99.90;;;;;;5054105;28;19919;-74
2022/01/29 00:40:36;;;;;;;;;;;27.00;99.90;;;;;;5086660;28;19917;-74
2022/01/29 00:43:04;;;;;;;;;;;27.10;99.90;;;;;;5053927;28;20011;-74
2022/01/29 00:45:31;;;;;;;;;;;27.20;99.90;;;;;;5054193;28;19909;-73
2022/01/29 00:47:58;;;;;;;;;;;27.20;99.90;;;;;;5053901;28;19964;-73
2022/01/29 00:50:25;;;;;;;;;;;27.30;99.90;;;;;;5053983;28;19909;-75
2022/01/29 00:52:51;;;;;;;;;;;27.30;99.90;;;;;;5053967;28;19916;-73
2022/01/29 00:55:18;;;;;;;;;;;27.40;99.90;;;;;;5054026;28;20413;-74
2022/01/29 00:57:45;;;;;;;;;;;27.60;99.90;;;;;;5054025;28;19909;-72
2022/01/29 01:00:12;;;;;;;;;;;28.00;99.90;;;;;;5054023;28;19909;-75
2022/01/29 01:02:39;;;;;;;;;;;28.20;99.90;;;;;;5053727;28;20007;-73
2022/01/29 01:05:06;;;;;;;;;;;28.30;99.90;;;;;;5053733;28;19909;-72
2022/01/29 01:07:33;;;;;;;;;;;28.70;99.90;;;;;;5053804;28;20095;-75
2022/01/29 01:09:59;;;;;;;;;;;28.70;99.90;;;;;;5053606;28;20371;-75
2022/01/29 01:12:26;;;;;;;;;;;28.70;99.90;;;;;;5053577;28;19957;-75
2022/01/29 01:14:53;;;;;;;;;;;29.00;99.90;;;;;;5053533;28;19913;-75
2022/01/29 01:17:19;;;;;;;;;;;29.00;99.90;;;;;;5053434;28;19916;-74
2022/01/29 01:19:46;;;;;;;;;;;29.30;99.90;;;;;;5053480;28;19916;-74
2022/01/29 01:22:15;;;;;;;;;;;29.20;99.90;;;;;;5053082;28;19928;-75
2022/01/29 01:24:41;;;;;;;;;;;29.40;99.90;;;;;;5053394;28;20368;-73
2022/01/29 01:27:08;;;;;;;;;;;29.40;99.90;;;;;;5053232;28;19917;-72
2022/01/29 01:29:35;;;;;;;;;;;29.60;99.90;;;;;;5053336;28;19995;-74
2022/01/29 01:32:01;;;;;;;;;;;29.60;99.90;;;;;;5053050;28;19909;-75
2022/01/29 01:34:32;;;;;;;;;;;29.20;99.90;;;;;;5053344;28;19909;-73
2022/01/29 01:37:06;;;;;;;;;;;29.00;99.90;;;;;;5053160;28;19909;-74
2022/01/29 01:39:35;;;;;;;;;;;29.10;99.90;;;;;;5053017;28;19948;-74
2022/01/29 01:42:07;;;;;;;;;;;29.50;99.90;;;;;;5052775;28;19940;-73
2022/01/29 01:44:53;;;;;;;;;;;29.60;99.90;;;;;;5052615;28;19917;-74
2022/01/29 01:47:20;;;;;;;;;;;29.80;99.90;;;;;;5072980;28;19916;-73
2022/01/29 01:49:46;;;;;;;;;;;29.90;99.90;;;;;;5071960;28;19908;-74
2022/01/29 01:52:14;;;;;;;;;;;29.70;99.90;;;;;;5072732;28;19962;-75
2022/01/29 01:54:41;;;;;;;;;;;29.80;99.90;;;;;;5072713;28;19913;-73
2022/01/29 01:57:08;;;;;;;;;;;29.40;99.90;;;;;;5072442;28;19912;-75
2022/01/29 01:59:35;;;;;;;;;;;29.40;99.90;;;;;;5072968;28;19908;-74
2022/01/29 02:02:02;;;;;;;;;;;29.10;99.90;;;;;;5072281;28;20003;-75
2022/01/29 02:04:28;;;;;;;;;;;29.10;99.90;;;;;;5071991;28;19920;-75
2022/01/29 02:06:55;;;;;;;;;;;28.70;99.90;;;;;;5072670;28;19909;-73
2022/01/29 02:09:24;;;;;;;;;;;28.60;99.90;;;;;;5072504;28;19909;-72
2022/01/29 02:11:53;;;;;;;;;;;28.50;99.90;;;;;;5072039;28;19935;-74
2022/01/29 02:14:23;;;;;;;;;;;28.40;99.90;;;;;;5072465;28;19909;-75
2022/01/29 02:16:50;;;;;;;;;;;28.40;99.90;;;;;;5072459;28;19976;-74
2022/01/29 02:19:17;;;;;;;;;;;28.40;99.90;;;;;;5071786;28;19974;-74
2022/01/29 02:21:44;;;;;;;;;;;28.40;99.90;;;;;;5072172;28;19925;-75
2022/01/29 02:24:11;;;;;;;;;;;28.40;99.90;;;;;;5071975;28;20489;-73
2022/01/29 02:26:38;;;;;;;;;;;28.30;99.90;;;;;;5072169;28;19940;-74
2022/01/29 02:29:04;;;;;;;;;;;28.30;99.90;;;;;;5072276;28;19915;-74
2022/01/29 02:31:31;;;;;;;;;;;28.30;99.90;;;;;;5072308;28;20252;-72
2022/01/29 02:33:58;;;;;;;;;;;28.30;99.90;;;;;;5071732;28;19920;-73
2022/01/29 02:36:25;;;;;;;;;;;28.10;99.90;;;;;;5072255;28;19931;-71
2022/01/29 02:38:51;;;;;;;;;;;28.20;99.90;;;;;;5072031;28;19935;-72
2022/01/29 02:41:20;;;;;;;;;;;28.20;99.90;;;;;;5072006;28;19916;-73
2022/01/29 02:43:48;;;;;;;;;;;28.10;99.90;;;;;;5070691;28;19917;-72
2022/01/29 02:48:47;;;;;;;;;;;28.30;99.90;;;;;;5071591;28;19916;-72
2022/01/29 02:51:14;;;;;;;;;;;28.40;99.90;;;;;;5072088;28;19908;-73
2022/01/29 02:53:41;;;;;;;;;;;28.30;99.90;;;;;;5071982;28;19916;-72
2022/01/29 02:56:09;;;;;;;;;;;28.40;99.90;;;;;;5074751;28;19908;-74
2022/01/29 02:58:35;;;;;;;;;;;28.20;99.90;;;;;;5076185;28;19916;-73
2022/01/29 03:01:03;;;;;;;;;;;28.10;99.90;;;;;;5076222;28;20283;-73
2022/01/29 03:03:29;;;;;;;;;;;28.20;99.90;;;;;;5075395;28;20427;-72
2022/01/29 03:05:56;;;;;;;;;;;28.30;99.90;;;;;;5075661;28;19909;-72
2022/01/29 03:08:23;;;;;;;;;;;28.30;99.90;;;;;;5075758;28;19908;-75
2022/01/29 03:10:49;;;;;;;;;;;28.10;99.90;;;;;;5075808;28;19915;-74
2022/01/29 03:13:17;;;;;;;;;;;28.10;99.90;;;;;;5075601;28;19934;-75
2022/01/29 03:15:43;;;;;;;;;;;28.20;99.90;;;;;;5075493;28;19912;-73
2022/01/29 03:18:10;;;;;;;;;;;28.10;99.90;;;;;;5075708;28;19962;-74
2022/01/29 03:20:37;;;;;;;;;;;28.30;99.90;;;;;;5075696;28;19916;-72
2022/01/29 03:23:03;;;;;;;;;;;28.30;99.90;;;;;;5075563;28;19923;-75
2022/01/29 03:25:30;;;;;;;;;;;28.20;99.90;;;;;;5075534;28;19908;-72
2022/01/29 03:27:57;;;;;;;;;;;28.20;99.90;;;;;;5075252;28;19916;-70
2022/01/29 03:30:23;;;;;;;;;;;28.10;99.90;;;;;;5075163;28;19908;-74
2022/01/29 03:32:50;;;;;;;;;;;28.10;99.90;;;;;;5075211;28;19992;-76
2022/01/29 03:35:17;;;;;;;;;;;28.00;99.90;;;;;;5075591;28;19916;-74
2022/01/29 03:37:43;;;;;;;;;;;28.00;99.90;;;;;;5075361;28;19912;-72
2022/01/29 03:40:10;;;;;;;;;;;28.00;99.90;;;;;;5074833;28;19962;-75
2022/01/29 03:42:44;;;;;;;;;;;27.80;99.90;;;;;;5075353;28;19924;-72
2022/01/29 03:45:10;;;;;;;;;;;27.60;99.90;;;;;;5075240;28;20402;-74
2022/01/29 03:47:37;;;;;;;;;;;27.60;99.90;;;;;;5075076;28;19998;-73
2022/01/29 03:50:04;;;;;;;;;;;27.40;99.90;;;;;;5074926;28;19909;-74
2022/01/29 03:52:31;;;;;;;;;;;27.40;99.90;;;;;;5075203;28;19915;-72
2022/01/29 03:54:57;;;;;;;;;;;27.60;99.90;;;;;;5074977;28;19909;-73
2022/01/29 03:57:24;;;;;;;;;;;27.60;99.90;;;;;;5075107;28;19947;-72
2022/01/29 03:59:51;;;;;;;;;;;27.40;99.90;;;;;;5074749;28;19909;-71
2022/01/29 04:02:17;;;;;;;;;;;27.20;99.90;;;;;;5074944;28;19919;-73
2022/01/29 04:04:44;;;;;;;;;;;27.30;99.90;;;;;;5075026;28;19908;-71
2022/01/29 04:07:12;;;;;;;;;;;27.40;99.90;;;;;;5074074;28;19908;-73
2022/01/29 04:09:47;;;;;;;;;;;27.50;99.90;;;;;;5074742;28;20291;-75
2022/01/29 04:12:14;;;;;;;;;;;27.40;99.90;;;;;;5074834;28;20421;-71
2022/01/29 04:14:41;;;;;;;;;;;27.20;99.90;;;;;;5074777;28;19956;-72
2022/01/29 04:17:08;;;;;;;;;;;27.10;99.90;;;;;;5074563;28;19919;-71
2022/01/29 04:19:35;;;;;;;;;;;27.10;99.90;;;;;;5074446;28;19947;-72
2022/01/29 04:22:03;;;;;;;;;;;26.90;99.90;;;;;;5074152;28;20355;-70
2022/01/29 04:24:30;;;;;;;;;;;26.70;99.90;;;;;;5074362;28;20004;-72
2022/01/29 04:26:57;;;;;;;;;;;26.70;99.90;;;;;;5074237;28;19908;-71
2022/01/29 04:29:27;;;;;;;;;;;26.70;99.90;;;;;;5074470;28;19915;-71
2022/01/29 04:34:21;;;;;;;;;;;26.50;99.90;;;;;;5074622;28;19912;-71
2022/01/29 04:36:48;;;;;;;;;;;26.60;99.90;;;;;;5074548;28;19916;-72
2022/01/29 04:39:14;;;;;;;;;;;26.60;99.90;;;;;;5074406;28;19912;-71
2022/01/29 04:41:41;;;;;;;;;;;26.60;99.90;;;;;;5073974;28;19909;-71
2022/01/29 04:44:08;;;;;;;;;;;26.50;99.90;;;;;;5073970;28;19920;-74
2022/01/29 04:46:35;;;;;;;;;;;26.50;99.90;;;;;;5074182;28;19915;-76
2022/01/29 04:49:01;;;;;;;;;;;26.60;99.90;;;;;;5074246;28;20015;-75
2022/01/29 04:51:28;;;;;;;;;;;26.70;99.90;;;;;;5074033;28;19913;-75
2022/01/29 04:53:54;;;;;;;;;;;26.60;99.90;;;;;;5074162;28;19916;-75
2022/01/29 04:56:21;;;;;;;;;;;26.70;99.90;;;;;;5073698;28;19950;-75
2022/01/29 04:58:48;;;;;;;;;;;26.70;99.90;;;;;;5074189;28;20122;-73
2022/01/29 05:01:14;;;;;;;;;;;26.80;99.90;;;;;;5073963;28;20330;-74
2022/01/29 05:03:41;;;;;;;;;;;26.90;99.90;;;;;;5073762;28;19916;-75
2022/01/29 05:06:10;;;;;;;;;;;26.80;99.90;;;;;;5073776;28;19908;-76
2022/01/29 05:08:37;;;;;;;;;;;26.90;99.90;;;;;;5073739;28;20355;-75
2022/01/29 05:11:08;;;;;;;;;;;26.70;99.90;;;;;;5073927;28;19916;-74
2022/01/29 05:13:37;;;;;;;;;;;26.70;99.90;;;;;;5063115;28;19917;-74
2022/01/29 05:27:00;;;;;;;;;;;27.10;99.90;;;;;;5081165;28;20429;-73
2022/01/29 05:29:30;;;;;;;;;;;27.00;99.90;;;;;;5053625;28;20424;-74
2022/01/29 05:31:58;;;;;;;;;;;26.80;99.90;;;;;;5052589;28;19915;-74
2022/01/29 05:34:25;;;;;;;;;;;26.80;99.90;;;;;;5053168;28;20385;-76
2022/01/29 05:36:53;;;;;;;;;;;26.80;99.90;;;;;;5053160;28;20363;-76
2022/01/29 05:39:20;;;;;;;;;;;26.80;99.90;;;;;;5053141;28;20322;-76
2022/01/29 05:41:47;;;;;;;;;;;26.80;99.90;;;;;;5052800;28;20279;-74
2022/01/29 05:44:14;;;;;;;;;;;26.90;99.90;;;;;;5053000;28;19978;-77
2022/01/29 05:46:41;;;;;;;;;;;26.50;99.90;;;;;;5052689;28;20307;-72
2022/01/29 05:49:07;;;;;;;;;;;26.40;99.90;;;;;;5052847;28;19930;-76
2022/01/29 05:51:34;;;;;;;;;;;26.40;99.90;;;;;;5052771;28;19909;-75
2022/01/29 05:54:01;;;;;;;;;;;26.20;99.90;;;;;;5052538;28;19909;-76
2022/01/29 05:56:29;;;;;;;;;;;26.20;99.90;;;;;;5052573;28;20392;-76
2022/01/29 05:58:56;;;;;;;;;;;26.20;99.90;;;;;;5052883;28;19919;-75
2022/01/29 06:01:23;;;;;;;;;;;26.00;99.90;;;;;;5052163;28;20352;-76
2022/01/29 06:03:49;;;;;;;;;;;26.10;99.90;;;;;;5052399;28;20359;-76
2022/01/29 06:06:16;;;;;;;;;;;25.90;99.90;;;;;;5052547;28;19917;-72
2022/01/29 06:08:43;;;;;;;;;;;25.80;99.90;;;;;;5052459;28;20007;-73
2022/01/29 06:11:10;;;;;;;;;;;25.80;99.90;;;;;;5052571;28;20359;-76
2022/01/29 06:13:36;;;;;;;;;;;25.80;99.90;;;;;;5052691;28;19908;-73
2022/01/29 06:16:03;;;;;;;;;;;25.80;99.90;;;;;;5051569;28;19996;-75
2022/01/29 06:18:30;;;;;;;;;;;25.70;99.90;;;;;;5052392;28;19908;-72
2022/01/29 06:21:04;;;;;;;;;;;25.80;99.90;;;;;;5052136;28;19939;-75
2022/01/29 06:23:36;;;;;;;;;;;25.70;99.90;;;;;;5052480;28;20252;-75
2022/01/29 06:26:04;;;;;;;;;;;25.70;99.90;;;;;;5051941;28;20364;-72
2022/01/29 06:28:31;;;;;;;;;;;25.50;99.90;;;;;;5050780;28;20209;-73
2022/01/29 06:30:59;;;;;;;;;;;25.50;99.90;;;;;;5051238;28;20359;-75
2022/01/29 06:33:26;;;;;;;;;;;25.50;99.90;;;;;;5052174;28;19935;-73
2022/01/29 06:35:53;;;;;;;;;;;25.50;99.90;;;;;;5052118;28;19955;-75
2022/01/29 06:38:19;;;;;;;;;;;25.40;99.90;;;;;;5052770;28;19962;-76
2022/01/29 06:40:46;;;;;;;;;;;25.50;99.90;;;;;;5052498;28;20338;-76
2022/01/29 06:43:13;;;;;;;;;;;25.50;99.90;;;;;;5052541;28;19959;-76
2022/01/29 06:45:41;;;;;;;;;;;25.50;99.90;;;;;;5051466;28;19962;-71
2022/01/29 06:48:07;;;;;;;;;;;25.40;99.90;;;;;;5051906;28;19909;-73
2022/01/29 06:50:35;;;;;;;;;;;25.40;99.90;;;;;;5052183;28;20321;-74
2022/01/29 06:53:02;;;;;;;;;;;25.40;99.90;;;;;;5051914;28;19916;-75
2022/01/29 06:55:28;;;;;;;;;;;25.40;99.90;;;;;;5052075;28;19912;-74
2022/01/29 06:57:55;;;;;;;;;;;25.40;99.90;;;;;;5052006;28;20368;-76
2022/01/29 07:00:22;;;;;;;;;;;25.40;99.90;;;;;;5052042;28;19916;-74
2022/01/29 07:02:48;;;;;;;;;;;25.30;99.90;;;;;;5051999;28;19927;-73
2022/01/29 07:05:15;;;;;;;;;;;25.30;99.90;;;;;;5050805;28;19917;-76
2022/01/29 07:07:42;;;;;;;;;;;25.40;99.90;;;;;;5052092;28;19916;-75
2022/01/29 07:10:09;;;;;;;;;;;25.30;99.90;;;;;;5051675;28;19940;-74
2022/01/29 07:12:39;;;;;;;;;;;25.30;99.90;;;;;;5052039;28;19909;-73
2022/01/29 07:15:07;;;;;;;;;;;25.30;99.90;;;;;;5051896;28;19975;-73
2022/01/29 07:17:33;;;;;;;;;;;25.30;99.90;;;;;;5051791;28;19962;-73
2022/01/29 07:20:00;;;;;;;;;;;25.30;99.90;;;;;;5051729;28;20008;-76
2022/01/29 07:22:26;;;;;;;;;;;25.30;99.90;;;;;;5051731;28;19974;-76
2022/01/29 07:24:53;;;;;;;;;;;25.30;99.90;;;;;;5051987;28;19909;-76
2022/01/29 07:27:20;;;;;;;;;;;25.20;99.90;;;;;;5052102;28;20331;-75
2022/01/29 07:29:46;;;;;;;;;;;25.20;99.90;;;;;;5051503;28;20347;-74
2022/01/29 07:32:14;;;;;;;;;;;25.20;99.90;;;;;;5051753;28;19935;-75
2022/01/29 07:34:41;;;;;;;;;;;25.10;99.90;;;;;;5051788;28;19944;-78
2022/01/29 07:37:07;;;;;;;;;;;25.10;99.90;;;;;;5051796;28;19988;-75
2022/01/29 07:39:34;;;;;;;;;;;25.00;99.90;;;;;;5051603;28;20036;-76
2022/01/29 07:42:00;;;;;;;;;;;25.00;99.90;;;;;;5051884;28;19932;-78
2022/01/29 07:44:27;;;;;;;;;;;24.90;99.90;;;;;;5055169;28;19943;-76
2022/01/29 07:46:54;;;;;;;;;;;25.00;99.90;;;;;;5055383;28;19974;-74
2022/01/29 07:49:20;;;;;;;;;;;24.90;99.90;;;;;;5055251;28;19916;-78
2022/01/29 07:51:47;;;;;;;;;;;24.90;99.90;;;;;;5054994;28;19915;-75
2022/01/29 07:54:14;;;;;;;;;;;24.90;99.90;;;;;;5054970;28;19962;-74
2022/01/29 07:56:40;;;;;;;;;;;24.80;99.90;;;;;;5055131;28;19916;-74
2022/01/29 07:59:07;;;;;;;;;;;24.80;99.90;;;;;;5054647;28;19912;-74
2022/01/29 08:01:34;;;;;;;;;;;24.80;99.90;;;;;;5055189;28;19962;-75
2022/01/29 08:04:00;;;;;;;;;;;24.80;99.90;;;;;;5054608;28;20007;-77
2022/01/29 08:06:29;;;;;;;;;;;24.80;99.90;;;;;;5055174;28;19943;-77
2022/01/29 08:08:57;;;;;;;;;;;24.60;99.90;;;;;;5055125;28;19908;-80
2022/01/29 08:11:24;;;;;;;;;;;24.60;99.90;;;;;;5054973;28;19952;-78
2022/01/29 08:13:51;;;;;;;;;;;24.50;99.90;;;;;;5054236;28;19908;-80
2022/01/29 08:16:17;;;;;;;;;;;24.50;99.90;;;;;;5054900;28;20003;-78
2022/01/29 08:18:45;;;;;;;;;;;24.50;99.90;;;;;;5054844;28;19908;-74
2022/01/29 08:21:16;;;;;;;;;;;24.50;99.90;;;;;;5054618;28;19929;-76
2022/01/29 08:23:43;;;;;;;;;;;24.50;99.90;;;;;;5054342;28;20324;-78
2022/01/29 08:26:10;;;;;;;;;;;24.50;99.90;;;;;;5054437;28;20382;-78
2022/01/29 08:28:37;;;;;;;;;;;24.60;99.90;;;;;;5053963;28;19909;-79
2022/01/29 08:31:04;;;;;;;;;;;24.50;99.90;;;;;;5054263;28;19916;-79
2022/01/29 08:33:30;;;;;;;;;;;24.50;99.90;;;;;;5054581;28;19995;-78
2022/01/29 08:35:58;;;;;;;;;;;24.50;99.90;;;;;;5054240;28;19962;-79
2022/01/29 08:38:25;;;;;;;;;;;24.50;99.90;;;;;;5054298;28;20374;-78
2022/01/29 08:40:53;;;;;;;;;;;24.50;99.90;;;;;;5054099;28;19919;-76
2022/01/29 08:43:19;;;;;;;;;;;24.50;99.90;;;;;;5053471;28;20322;-77
2022/01/29 08:45:46;;;;;;;;;;;24.50;99.90;;;;;;5053869;28;19931;-73
2022/01/29 08:48:13;;;;;;;;;;;24.60;99.90;;;;;;5054331;28;19971;-75
2022/01/29 08:50:40;;;;;;;;;;;24.50;99.90;;;;;;5054230;28;19932;-79
2022/01/29 08:53:07;;;;;;;;;;;24.50;99.90;;;;;;5053759;28;20267;-78
2022/01/29 08:55:36;;;;;;;;;;;24.50;99.90;;;;;;5053933;28;19955;-78
2022/01/29 08:58:04;;;;;;;;;;;24.60;99.90;;;;;;5053215;28;20964;-78
2022/01/29 09:00:31;;;;;;;;;;;24.60;99.90;;;;;;5054011;28;20010;-78
2022/01/29 09:02:58;;;;;;;;;;;24.60;99.90;;;;;;5053888;28;19916;-77
2022/01/29 09:05:24;;;;;;;;;;;24.60;99.90;;;;;;5053842;28;19909;-78
2022/01/29 09:07:51;;;;;;;;;;;24.60;99.90;;;;;;5053575;28;19909;-77
2022/01/29 09:10:18;;;;;;;;;;;24.60;99.90;;;;;;5053662;28;19913;-78
2022/01/29 09:12:44;;;;;;;;;;;24.60;99.90;;;;;;5053166;28;19909;-80
2022/01/29 09:15:11;;;;;;;;;;;24.60;99.90;;;;;;5053935;28;19924;-78
2022/01/29 09:17:39;;;;;;;;;;;24.50;99.90;;;;;;5053777;28;19924;-79
2022/01/29 09:20:08;;;;;;;;;;;24.50;99.90;;;;;;5053433;28;19999;-77
2022/01/29 09:22:34;;;;;;;;;;;24.60;99.90;;;;;;5053788;28;20082;-79
2022/01/29 09:25:01;;;;;;;;;;;24.60;99.90;;;;;;5053325;28;19917;-78
2022/01/29 09:27:28;;;;;;;;;;;24.50;99.90;;;;;;5052777;28;19916;-78
2022/01/29 09:29:54;;;;;;;;;;;24.50;99.90;;;;;;5053210;28;19987;-79
2022/01/29 09:32:21;;;;;;;;;;;24.50;99.90;;;;;;5053227;28;19909;-78
2022/01/29 09:34:48;;;;;;;;;;;24.50;99.90;;;;;;5053398;28;19939;-74
2022/01/29 09:37:14;;;;;;;;;;;24.50;99.90;;;;;;5053527;28;19964;-78
2022/01/29 09:39:42;;;;;;;;;;;24.50;99.90;;;;;;5053083;28;19979;-76
2022/01/29 09:42:10;;;;;;;;;;;24.50;99.90;;;;;;5052889;28;20312;-78
2022/01/29 09:44:36;;;;;;;;;;;24.50;99.90;;;;;;5053031;28;20326;-78
2022/01/29 09:47:04;;;;;;;;;;;24.50;99.90;;;;;;5053149;28;20303;-74
2022/01/29 09:49:34;;;;;;;;;;;24.50;99.90;;;;;;5053206;28;20331;-76
2022/01/29 09:52:02;;;;;;;;;;;24.50;99.90;;;;;;5052850;28;19951;-78
2022/01/29 09:54:28;;;;;;;;;;;24.50;99.90;;;;;;5052720;28;19952;-79
2022/01/29 09:56:55;;;;;;;;;;;24.60;99.90;;;;;;5052432;28;19909;-79
2022/01/29 09:59:22;;;;;;;;;;;24.50;99.90;;;;;;5052992;28;20376;-78
2022/01/29 10:01:49;;;;;;;;;;;24.60;99.90;;;;;;5052775;28;19999;-78
2022/01/29 10:04:16;;;;;;;;;;;24.50;99.90;;;;;;5052393;28;19975;-74
2022/01/29 10:06:45;;;;;;;;;;;24.60;99.90;;;;;;5052682;28;19944;-76
2022/01/29 10:09:31;;;;;;;;;;;24.60;99.90;;;;;;5052639;28;19920;-74
2022/01/29 10:12:16;;;;;;;;;;;24.60;99.90;;;;;;5052139;28;19916;-79
2022/01/29 10:14:50;;;;;;;;;;;24.50;99.90;;;;;;5052768;28;20172;-77
2022/01/29 10:17:35;;;;;;;;;;;24.50;99.90;;;;;;5052804;28;19913;-77
2022/01/29 10:20:11;;;;;;;;;;;24.40;99.90;;;;;;5052406;28;20352;-79
2022/01/29 10:22:39;;;;;;;;;;;24.30;99.90;;;;;;5052310;28;20007;-78
2022/01/29 10:25:18;;;;;;;;;;;24.40;99.90;;;;;;5052132;28;20258;-76
2022/01/29 10:28:02;;;;;;;;;;;24.40;99.90;;;;;;5052582;28;19932;-74
2022/01/29 10:30:30;;;;;;;;;;;24.40;99.90;;;;;;5052480;28;19920;-77
2022/01/29 10:33:18;;;;;;;;;;;24.40;99.90;;;;;;5052608;28;19908;-75
2022/01/29 10:35:45;;;;;;;;;;;24.40;99.90;;;;;;5052182;28;19915;-76
2022/01/29 10:38:12;;;;;;;;;;;24.40;99.90;;;;;;5052167;28;19912;-76
2022/01/29 10:40:39;;;;;;;;;;;24.40;99.90;;;;;;5049006;28;19917;-77
2022/01/29 10:43:06;;;;;;;;;;;24.30;99.90;;;;;;5050260;28;19921;-76
2022/01/29 10:45:34;;;;;;;;;;;24.20;99.90;;;;;;5050079;28;19913;-76
2022/01/29 10:48:01;;;;;;;;;;;24.20;99.90;;;;;;5050140;28;20360;-74
2022/01/29 10:50:28;;;;;;;;;;;24.10;99.90;;;;;;5050175;28;19913;-72
2022/01/29 10:52:57;;;;;;;;;;;24.00;99.90;;;;;;5049925;28;20011;-77
2022/01/29 10:55:24;;;;;;;;;;;24.10;99.90;;;;;;5049794;28;19955;-73
2022/01/29 10:57:51;;;;;;;;;;;24.20;99.90;;;;;;5049881;28;20439;-74
2022/01/29 11:00:22;;;;;;;;;;;24.00;99.90;;;;;;5050047;28;20003;-74
2022/01/29 11:02:49;;;;;;;;;;;24.00;99.90;;;;;;5050283;28;19970;-75
2022/01/29 11:05:16;;;;;;;;;;;23.80;99.90;;;;;;5049609;28;19975;-81
2022/01/29 11:07:46;;;;;;;;;;;23.80;99.90;;;;;;5049894;28;19990;-76
2022/01/29 11:10:13;;;;;;;;;;;23.80;99.90;;;;;;5049449;28;19944;-75
2022/01/29 11:12:44;;;;;;;;;;;23.70;99.90;;;;;;5049978;28;19916;-76
2022/01/29 11:15:11;;;;;;;;;;;23.60;99.90;;;;;;5049774;28;19909;-75
2022/01/29 11:17:37;;;;;;;;;;;23.50;99.90;;;;;;5053219;28;19915;-78
2022/01/29 11:20:04;;;;;;;;;;;23.50;99.90;;;;;;5053449;28;20003;-78
2022/01/29 11:22:35;;;;;;;;;;;23.40;99.90;;;;;;5051997;28;19921;-75
2022/01/29 11:25:05;;;;;;;;;;;23.40;99.90;;;;;;5053190;28;20389;-80
2022/01/29 11:27:33;;;;;;;;;;;23.40;99.90;;;;;;5053722;28;19916;-77
2022/01/29 11:30:09;;;;;;;;;;;23.30;99.90;;;;;;5053121;28;20387;-77
2022/01/29 11:32:42;;;;;;;;;;;23.40;99.90;;;;;;5085722;28;20362;-77
2022/01/29 11:35:12;;;;;;;;;;;23.40;99.90;;;;;;5053482;28;20268;-81
2022/01/29 11:37:49;;;;;;;;;;;23.40;99.90;;;;;;5053265;28;20382;-78
2022/01/29 11:40:26;;;;;;;;;;;23.40;99.90;;;;;;5052722;28;19909;-77
2022/01/29 11:42:54;;;;;;;;;;;23.40;99.90;;;;;;5053251;28;19939;-74
2022/01/29 11:45:41;;;;;;;;;;;23.40;99.90;;;;;;5052966;28;19960;-73
2022/01/29 11:48:32;;;;;;;;;;;23.50;99.90;;;;;;5053171;28;19916;-73
2022/01/29 11:51:01;;;;;;;;;;;23.50;99.90;;;;;;5052512;28;19917;-75
2022/01/29 11:53:50;;;;;;;;;;;23.50;99.90;;;;;;5053113;28;20003;-74
2022/01/29 11:56:37;;;;;;;;;;;23.50;99.90;;;;;;5052369;28;19970;-75
2022/01/29 11:59:23;;;;;;;;;;;23.50;99.90;;;;;;5052630;28;19959;-73
2022/01/29 12:01:50;;;;;;;;;;;23.50;99.90;;;;;;5052529;28;19949;-76
2022/01/29 12:04:17;;;;;;;;;;;23.50;99.90;;;;;;5052938;28;19972;-74
2022/01/29 12:07:01;;;;;;;;;;;23.50;99.90;;;;;;5053321;28;19960;-75
2022/01/29 12:09:33;;;;;;;;;;;23.50;99.90;;;;;;5052173;28;20148;-75
2022/01/29 12:12:17;;;;;;;;;;;23.60;99.90;;;;;;5052599;28;19915;-75
2022/01/29 12:14:47;;;;;;;;;;;23.60;99.90;;;;;;5052959;28;19987;-76
2022/01/29 12:17:34;;;;;;;;;;;23.60;99.90;;;;;;5052764;28;20027;-77
2022/01/29 12:20:07;;;;;;;;;;;23.60;99.90;;;;;;5051907;28;19962;-74
2022/01/29 12:22:35;;;;;;;;;;;23.60;99.90;;;;;;5052405;28;20055;-75
2022/01/29 12:25:03;;;;;;;;;;;23.70;99.90;;;;;;5051625;28;20287;-74
2022/01/29 12:27:50;;;;;;;;;;;23.70;99.90;;;;;;5051706;28;19909;-74
2022/01/29 12:30:37;;;;;;;;;;;23.70;99.90;;;;;;5052536;28;20279;-76
2022/01/29 12:33:08;;;;;;;;;;;23.60;99.90;;;;;;5052583;28;19999;-77
2022/01/29 12:35:39;;;;;;;;;;;23.70;99.90;;;;;;5052274;28;20371;-78
2022/01/29 12:38:07;;;;;;;;;;;23.60;99.90;;;;;;5051589;28;19909;-75
2022/01/29 12:40:38;;;;;;;;;;;23.70;99.90;;;;;;5051735;28;19947;-75
2022/01/29 12:43:52;;;;;;;;;;;23.80;99.90;;;;;;5052057;28;19916;-76
2022/01/29 12:46:23;;;;;;;;;;;23.80;99.90;;;;;;5049808;28;19913;-75
2022/01/29 12:49:16;;;;;;;;;;;23.70;99.90;;;;;;5051849;28;19962;-78
2022/01/29 12:51:51;;;;;;;;;;;23.70;99.90;;;;;;5051809;28;19920;-78
2022/01/29 12:54:18;;;;;;;;;;;23.70;99.90;;;;;;5051517;28;20190;-78
2022/01/29 12:56:44;;;;;;;;;;;23.70;99.90;;;;;;5051919;28;19982;-75
2022/01/29 12:59:12;;;;;;;;;;;23.70;99.90;;;;;;5051968;28;20007;-76
2022/01/29 13:01:39;;;;;;;;;;;23.60;99.90;;;;;;5051892;28;19940;-78
2022/01/29 13:04:13;;;;;;;;;;;23.60;99.90;;;;;;5051265;28;19939;-76
2022/01/29 13:06:40;;;;;;;;;;;23.60;99.90;;;;;;5062247;28;19942;-79
2022/01/29 13:09:14;;;;;;;;;;;23.60;99.90;;;;;;5051754;28;19909;-74
2022/01/29 13:11:40;;;;;;;;;;;23.60;99.90;;;;;;5051717;28;19909;-75
2022/01/29 13:14:36;;;;;;;;;;;23.60;99.90;;;;;;5051471;28;19947;-76
2022/01/29 13:17:06;;;;;;;;;;;23.70;99.90;;;;;;5050764;28;20039;-74
2022/01/29 13:19:33;;;;;;;;;;;23.70;99.90;;;;;;5051571;28;19917;-75
2022/01/29 13:22:03;;;;;;;;;;;23.60;99.90;;;;;;5051106;28;19931;-74
2022/01/29 13:24:32;;;;;;;;;;;23.60;99.90;;;;;;5051346;28;19917;-74
2022/01/29 13:27:06;;;;;;;;;;;23.60;99.90;;;;;;5051535;28;19944;-75
2022/01/29 13:29:34;;;;;;;;;;;23.70;99.90;;;;;;5051088;28;19916;-77
2022/01/29 13:32:05;;;;;;;;;;;23.60;99.90;;;;;;5051139;28;19909;-77
2022/01/29 13:34:34;;;;;;;;;;;23.70;99.90;;;;;;5049999;28;20015;-77
2022/01/29 13:37:02;;;;;;;;;;;23.70;99.90;;;;;;5050980;28;19916;-77
2022/01/29 13:39:30;;;;;;;;;;;23.70;99.90;;;;;;5050310;28;19916;-76
2022/01/29 13:42:29;;;;;;;;;;;23.60;99.90;;;;;;5050884;28;19917;-77
2022/01/29 13:45:09;;;;;;;;;;;23.60;99.90;;;;;;5046979;28;19964;-79
2022/01/29 13:47:37;;;;;;;;;;;23.60;99.90;;;;;;5050891;28;20394;-75
2022/01/29 13:50:22;;;;;;;;;;;23.70;99.90;;;;;;5050867;28;19908;-75
2022/01/29 13:53:15;;;;;;;;;;;23.60;99.90;;;;;;5050876;28;19913;-77
2022/01/29 13:56:05;;;;;;;;;;;23.60;99.90;;;;;;5049544;28;19909;-75
2022/01/29 13:58:50;;;;;;;;;;;23.70;99.90;;;;;;5048179;28;19939;-75
2022/01/29 14:01:32;;;;;;;;;;;23.60;99.90;;;;;;5050922;28;19963;-74
2022/01/29 14:04:00;;;;;;;;;;;23.60;99.90;;;;;;5050693;28;20260;-79
2022/01/29 14:06:41;;;;;;;;;;;23.60;99.90;;;;;;5049223;28;20000;-74
2022/01/29 14:09:26;;;;;;;;;;;23.60;99.90;;;;;;5050491;28;19962;-77
2022/01/29 14:12:01;;;;;;;;;;;23.60;99.90;;;;;;5050577;28;20267;-77
2022/01/29 14:14:29;;;;;;;;;;;23.70;99.90;;;;;;5050723;28;19920;-77
2022/01/29 14:16:56;;;;;;;;;;;23.60;99.90;;;;;;5050648;28;20363;-75
2022/01/29 14:19:23;;;;;;;;;;;23.60;99.90;;;;;;5050647;28;19915;-76
2022/01/29 14:21:51;;;;;;;;;;;23.70;99.90;;;;;;5049555;28;19981;-75
2022/01/29 14:24:18;;;;;;;;;;;23.60;99.90;;;;;;5050503;28;19923;-78
2022/01/29 14:26:45;;;;;;;;;;;23.60;99.90;;;;;;5082623;28;20646;-77
2022/01/29 14:29:12;;;;;;;;;;;23.70;99.90;;;;;;5050385;28;19909;-76
2022/01/29 14:31:38;;;;;;;;;;;23.60;99.90;;;;;;5050492;28;19912;-77
2022/01/29 14:34:05;;;;;;;;;;;23.60;99.90;;;;;;5050081;28;20310;-75
2022/01/29 14:36:32;;;;;;;;;;;23.60;99.90;;;;;;5050119;28;20006;-76
2022/01/29 14:38:59;;;;;;;;;;;23.60;99.90;;;;;;5050261;28;19917;-78
2022/01/29 14:41:26;;;;;;;;;;;23.60;99.90;;;;;;5050273;28;19915;-78
2022/01/29 14:43:52;;;;;;;;;;;23.60;99.90;;;;;;5049964;28;19921;-77